»·PEaware :: N102EF KRDD-KACV

N102EF :: KRDD-KACV

FLIGHT INFORMATION

Flight Status: Arrived
Operator: Privately registered:
United States
More flights under this callsign
Pilot: Ron R. (25532)
Aircraft: BEECH AIRCRAFT DUKE
(BE60)
More flights by this aircraft type
Origin: KRDD Redding Mun
United States
Destination: KACV Arcata
United States
More flights between these airports :: More routes between these airports
Route: KENDL4 TOMAD V195 YAGER
File this flight plan on PilotEdge
Remarks:
Altitude:
(Current/Filed)
12,000ft
Speed:
(Current/Filed)
210kts
Departed: 29-Jun-20 09:59 PM
Arrived: 29-Jun-20 10:34 PM
Distance/Time
Traveled:
87nm/0:35
Distance/Time
To Go:
Arrived

Flight Plot

Page will automatically refresh every two minutes.


Map Options




Map Legend


Flown Route
Filed Route
Departure Airport
Arrival Airport
Navaid (VOR, NDB)
Fix

Horizontal Profiles

Position Reports

Time Latitude Longitude Heading Altitude Ground
Speed
29-Jun-20 21:35 40.510516 -122.298263 179 505ft 0kts
29-Jun-20 21:36 40.510516 -122.298263 179 505ft 0kts
29-Jun-20 21:37 40.510516 -122.298263 179 505ft 0kts
29-Jun-20 21:38 40.510516 -122.298263 179 505ft 0kts
29-Jun-20 21:39 40.510516 -122.298263 179 505ft 0kts
29-Jun-20 21:40 40.510514 -122.298263 179 505ft 0kts
29-Jun-20 21:41 40.510511 -122.298263 179 505ft 0kts
29-Jun-20 21:42 40.510511 -122.298263 179 505ft 0kts
29-Jun-20 21:43 40.510510 -122.298263 179 505ft 0kts
29-Jun-20 21:44 40.510510 -122.298263 179 505ft 0kts
29-Jun-20 21:45 40.510509 -122.298263 179 505ft 0kts
29-Jun-20 21:46 40.510508 -122.298263 179 505ft 0kts
29-Jun-20 21:47 40.510506 -122.298263 179 505ft 0kts
29-Jun-20 21:48 40.510504 -122.298263 179 505ft 0kts
29-Jun-20 21:49 40.510501 -122.298263 179 505ft 0kts
29-Jun-20 21:50 40.510445 -122.298275 201 505ft 1kts
29-Jun-20 21:51 40.512279 -122.298545 2 505ft 10kts
29-Jun-20 21:52 40.515282 -122.297932 39 505ft 11kts
29-Jun-20 21:53 40.518025 -122.296288 359 505ft 11kts
29-Jun-20 21:54 40.520194 -122.295670 88 505ft 0kts
29-Jun-20 21:55 40.520194 -122.295667 88 505ft 0kts
29-Jun-20 21:56 40.520194 -122.295664 88 505ft 0kts
29-Jun-20 21:57 40.520194 -122.295240 93 505ft 8kts
29-Jun-20 21:58 40.509789 -122.294897 180 532ft 134kts
29-Jun-20 21:59 40.477765 -122.317000 280 2203ft 159kts
29-Jun-20 22:00 40.460573 -122.367077 235 4128ft 161kts
29-Jun-20 22:01 40.434464 -122.414218 242 6237ft 164kts
29-Jun-20 22:02 40.410962 -122.466457 238 8254ft 172kts
29-Jun-20 22:03 40.383237 -122.518214 240 10257ft 174kts
29-Jun-20 22:04 40.355068 -122.571175 240 11982ft 192kts
29-Jun-20 22:05 40.328035 -122.640780 277 12029ft 223kts
29-Jun-20 22:06 40.351750 -122.714384 293 12038ft 222kts
29-Jun-20 22:07 40.368033 -122.793022 288 12052ft 224kts
29-Jun-20 22:08 40.383176 -122.872162 288 12066ft 223kts
29-Jun-20 22:09 40.398603 -122.951021 291 12113ft 222kts
29-Jun-20 22:10 40.416107 -123.029189 290 12127ft 223kts
29-Jun-20 22:11 40.430996 -123.108417 285 12134ft 225kts
29-Jun-20 22:12 40.440216 -123.189753 294 12140ft 221kts
29-Jun-20 22:13 40.460439 -123.266063 292 12148ft 222kts
29-Jun-20 22:14 40.476145 -123.344882 290 12154ft 223kts
29-Jun-20 22:15 40.491018 -123.424791 289 10973ft 221kts
29-Jun-20 22:16 40.505528 -123.502199 287 9472ft 215kts
29-Jun-20 22:17 40.519084 -123.575920 287 8192ft 196kts
29-Jun-20 22:18 40.532325 -123.647501 288 7581ft 200kts
29-Jun-20 22:19 40.544890 -123.716003 288 7575ft 188kts
29-Jun-20 22:20 40.555591 -123.787847 286 6991ft 197kts
29-Jun-20 22:21 40.584670 -123.837477 338 6774ft 184kts
29-Jun-20 22:22 40.633736 -123.869381 335 5720ft 192kts
29-Jun-20 22:23 40.677122 -123.903937 332 5690ft 173kts
29-Jun-20 22:24 40.716791 -123.931773 336 5652ft 156kts
29-Jun-20 22:25 40.755432 -123.957451 336 5069ft 150kts
29-Jun-20 22:26 40.791753 -123.982075 336 4142ft 142kts
29-Jun-20 22:27 40.826376 -124.005525 335 3363ft 133kts
29-Jun-20 22:28 40.858012 -124.026887 336 2675ft 123kts
29-Jun-20 22:29 40.886720 -124.046121 334 2041ft 106kts
29-Jun-20 22:30 40.913046 -124.063877 332 1530ft 111kts
29-Jun-20 22:31 40.941000 -124.082973 332 918ft 112kts
29-Jun-20 22:32 40.968195 -124.101504 332 329ft 106kts
29-Jun-20 22:33 40.981635 -124.111084 268 221ft 10kts
29-Jun-20 22:34 40.978070 -124.109541 152 221ft 19kts
29-Jun-20 22:36 40.974037 -124.108364 149 221ft 16kts
29-Jun-20 22:37 40.973060 -124.107634 151 221ft 0kts
29-Jun-20 22:38 40.973059 -124.107633 151 221ft 0kts
29-Jun-20 22:39 40.973059 -124.107633 151 221ft 0kts
29-Jun-20 22:40 40.973059 -124.107633 151 221ft 0kts
29-Jun-20 22:41 40.973059 -124.107633 151 221ft 0kts
29-Jun-20 22:42 40.973058 -124.107633 151 221ft 0kts
29-Jun-20 22:43 40.973058 -124.107633 151 221ft 0kts
29-Jun-20 22:44 40.973058 -124.107633 151 221ft 0kts
29-Jun-20 22:45 40.973058 -124.107633 151 221ft 0kts
29-Jun-20 22:46 40.973058 -124.107633 151 221ft 0kts
29-Jun-20 22:47 40.973058 -124.107633 151 221ft 0kts
29-Jun-20 22:48 40.973058 -124.107633 151 221ft 0kts

Navigation Log

Ident Type
Flight plan parsing failed, navigation log unavailable